sensor_id;sensor_type;location;lat;lon;timestamp;pressure;altitude;pressure_sealevel;temperature;humidity
61039;BME280;46919;45.816;3.104;2023-05-19T00:01:14;98132.13;;;12.25;58.37
61039;BME280;46919;45.816;3.104;2023-05-19T00:03:54;98131.78;;;12.22;57.71
61039;BME280;46919;45.816;3.104;2023-05-19T00:06:27;98139.09;;;12.21;58.08
61039;BME280;46919;45.816;3.104;2023-05-19T00:08:58;98136.59;;;12.20;58.30
61039;BME280;46919;45.816;3.104;2023-05-19T00:11:25;98131.66;;;12.17;57.82
61039;BME280;46919;45.816;3.104;2023-05-19T00:13:52;98134.34;;;12.17;57.64
61039;BME280;46919;45.816;3.104;2023-05-19T00:16:19;98125.16;;;12.18;58.20
61039;BME280;46919;45.816;3.104;2023-05-19T00:18:44;98130.56;;;12.18;58.11
61039;BME280;46919;45.816;3.104;2023-05-19T00:21:11;98134.34;;;12.17;58.39
61039;BME280;46919;45.816;3.104;2023-05-19T00:23:37;98133.50;;;12.16;58.82
61039;BME280;46919;45.816;3.104;2023-05-19T00:26:02;98132.69;;;12.16;58.32
61039;BME280;46919;45.816;3.104;2023-05-19T00:28:27;98133.16;;;12.12;58.14
61039;BME280;46919;45.816;3.104;2023-05-19T00:30:53;98138.13;;;12.16;58.14
61039;BME280;46919;45.816;3.104;2023-05-19T00:33:18;98134.81;;;12.13;58.34
61039;BME280;46919;45.816;3.104;2023-05-19T00:35:44;98130.22;;;12.14;58.02
61039;BME280;46919;45.816;3.104;2023-05-19T00:38:09;98135.63;;;12.14;58.82
61039;BME280;46919;45.816;3.104;2023-05-19T00:40:35;98133.97;;;12.13;58.67
61039;BME280;46919;45.816;3.104;2023-05-19T00:43:00;98126.91;;;12.12;58.83
61039;BME280;46919;45.816;3.104;2023-05-19T00:45:27;98126.69;;;12.13;59.22
61039;BME280;46919;45.816;3.104;2023-05-19T00:47:52;98129.41;;;12.13;59.52
61039;BME280;46919;45.816;3.104;2023-05-19T00:50:18;98135.28;;;12.10;59.90
61039;BME280;46919;45.816;3.104;2023-05-19T00:52:43;98133.38;;;12.11;59.52
61039;BME280;46919;45.816;3.104;2023-05-19T00:55:09;98135.28;;;12.10;59.45
61039;BME280;46919;45.816;3.104;2023-05-19T00:57:36;98137.13;;;12.10;59.51
61039;BME280;46919;45.816;3.104;2023-05-19T01:00:03;98128.19;;;12.09;59.46
61039;BME280;46919;45.816;3.104;2023-05-19T01:02:29;98126.53;;;12.08;59.26
61039;BME280;46919;45.816;3.104;2023-05-19T01:04:56;98134.06;;;12.06;59.48
61039;BME280;46919;45.816;3.104;2023-05-19T01:07:22;98137.81;;;12.05;59.00
61039;BME280;46919;45.816;3.104;2023-05-19T01:09:48;98128.28;;;12.03;59.19
61039;BME280;46919;45.816;3.104;2023-05-19T01:12:14;98132.16;;;12.07;59.68
61039;BME280;46919;45.816;3.104;2023-05-19T01:14:41;98129.69;;;12.05;59.42
61039;BME280;46919;45.816;3.104;2023-05-19T01:17:35;98131.22;;;12.01;59.55
61039;BME280;46919;45.816;3.104;2023-05-19T01:23:19;98121.75;;;11.92;59.55
61039;BME280;46919;45.816;3.104;2023-05-19T01:32:08;98122.63;;;11.86;60.24
61039;BME280;46919;45.816;3.104;2023-05-19T01:34:41;98117.66;;;11.83;60.38
61039;BME280;46919;45.816;3.104;2023-05-19T01:37:08;98111.19;;;11.84;60.35
61039;BME280;46919;45.816;3.104;2023-05-19T01:39:34;98123.28;;;11.81;60.40
61039;BME280;46919;45.816;3.104;2023-05-19T01:42:00;98125.19;;;11.81;60.26
61039;BME280;46919;45.816;3.104;2023-05-19T01:44:26;98120.59;;;11.81;60.60
61039;BME280;46919;45.816;3.104;2023-05-19T01:46:53;98117.28;;;11.79;60.54
61039;BME280;46919;45.816;3.104;2023-05-19T01:49:18;98118.56;;;11.76;60.50
61039;BME280;46919;45.816;3.104;2023-05-19T01:51:44;98116.06;;;11.75;60.51
61039;BME280;46919;45.816;3.104;2023-05-19T01:54:09;98118.56;;;11.76;61.09
61039;BME280;46919;45.816;3.104;2023-05-19T01:57:09;98119.00;;;11.73;61.00
61039;BME280;46919;45.816;3.104;2023-05-19T01:59:48;98118.13;;;11.61;62.49
61039;BME280;46919;45.816;3.104;2023-05-19T02:05:17;98113.75;;;11.60;61.30
61039;BME280;46919;45.816;3.104;2023-05-19T02:08:05;98123.56;;;11.61;61.15
61039;BME280;46919;45.816;3.104;2023-05-19T02:10:36;98117.97;;;11.56;61.10
61039;BME280;46919;45.816;3.104;2023-05-19T02:13:05;98120.91;;;11.54;61.54
61039;BME280;46919;45.816;3.104;2023-05-19T02:15:38;98116.09;;;11.56;61.92
61039;BME280;46919;45.816;3.104;2023-05-19T02:18:05;98112.09;;;11.59;61.64
61039;BME280;46919;45.816;3.104;2023-05-19T02:20:33;98109.41;;;11.59;61.68
61039;BME280;46919;45.816;3.104;2023-05-19T02:22:59;98108.44;;;11.53;61.49
61039;BME280;46919;45.816;3.104;2023-05-19T02:25:24;98103.47;;;11.50;61.65
61039;BME280;46919;45.816;3.104;2023-05-19T02:27:51;98110.16;;;11.48;61.85
61039;BME280;46919;45.816;3.104;2023-05-19T02:30:16;98102.63;;;11.50;61.99
61039;BME280;46919;45.816;3.104;2023-05-19T02:32:41;98106.19;;;11.50;61.91
61039;BME280;46919;45.816;3.104;2023-05-19T02:35:11;98092.66;;;11.50;61.96
61039;BME280;46919;45.816;3.104;2023-05-19T02:37:37;98088.28;;;11.49;62.20
61039;BME280;46919;45.816;3.104;2023-05-19T02:40:02;98093.91;;;11.48;61.98
61039;BME280;46919;45.816;3.104;2023-05-19T02:42:28;98089.78;;;11.45;62.34
61039;BME280;46919;45.816;3.104;2023-05-19T02:44:54;98088.50;;;11.48;62.54
61039;BME280;46919;45.816;3.104;2023-05-19T02:47:19;98085.19;;;11.46;62.81
61039;BME280;46919;45.816;3.104;2023-05-19T02:49:44;98082.03;;;11.49;62.54
61039;BME280;46919;45.816;3.104;2023-05-19T02:52:10;98089.09;;;11.50;62.69
61039;BME280;46919;45.816;3.104;2023-05-19T02:54:36;98083.09;;;11.48;62.80
61039;BME280;46919;45.816;3.104;2023-05-19T02:57:01;98083.53;;;11.45;63.20
61039;BME280;46919;45.816;3.104;2023-05-19T02:59:27;98079.19;;;11.44;63.05
61039;BME280;46919;45.816;3.104;2023-05-19T03:01:58;98079.41;;;11.42;62.58
61039;BME280;46919;45.816;3.104;2023-05-19T03:04:24;98074.22;;;11.40;62.78
61039;BME280;46919;45.816;3.104;2023-05-19T03:06:49;98084.22;;;11.40;63.05
61039;BME280;46919;45.816;3.104;2023-05-19T03:09:15;98077.75;;;11.41;62.87
61039;BME280;46919;45.816;3.104;2023-05-19T03:11:40;98077.97;;;11.39;62.88
61039;BME280;46919;45.816;3.104;2023-05-19T03:14:06;98076.94;;;11.40;63.57
61039;BME280;46919;45.816;3.104;2023-05-19T03:16:33;98072.56;;;11.39;64.28
61039;BME280;46919;45.816;3.104;2023-05-19T03:18:59;98077.84;;;11.34;64.28
61039;BME280;46919;45.816;3.104;2023-05-19T03:21:24;98074.28;;;11.34;64.59
61039;BME280;46919;45.816;3.104;2023-05-19T03:23:50;98079.31;;;11.30;64.86
61039;BME280;46919;45.816;3.104;2023-05-19T03:26:15;98076.25;;;11.27;65.13
61039;BME280;46919;45.816;3.104;2023-05-19T03:28:41;98080.00;;;11.26;65.29
61039;BME280;46919;45.816;3.104;2023-05-19T03:31:06;98077.81;;;11.16;66.29
61039;BME280;46919;45.816;3.104;2023-05-19T03:33:31;98075.56;;;11.13;66.79
61039;BME280;46919;45.816;3.104;2023-05-19T03:35:57;98076.38;;;11.13;66.71
61039;BME280;46919;45.816;3.104;2023-05-19T03:38:23;98078.25;;;11.13;66.81
61039;BME280;46919;45.816;3.104;2023-05-19T03:40:48;98081.41;;;11.10;67.42
61039;BME280;46919;45.816;3.104;2023-05-19T03:43:14;98087.25;;;11.06;67.77
61039;BME280;46919;45.816;3.104;2023-05-19T03:45:41;98087.72;;;11.03;68.28
61039;BME280;46919;45.816;3.104;2023-05-19T03:48:06;98080.66;;;11.02;68.68
61039;BME280;46919;45.816;3.104;2023-05-19T03:50:31;98085.41;;;11.07;68.43
61039;BME280;46919;45.816;3.104;2023-05-19T03:52:58;98077.06;;;11.09;68.63
61039;BME280;46919;45.816;3.104;2023-05-19T03:55:24;98078.56;;;11.04;68.59
61039;BME280;46919;45.816;3.104;2023-05-19T03:57:50;98078.19;;;11.01;68.22
61039;BME280;46919;45.816;3.104;2023-05-19T04:00:17;98086.97;;;10.96;68.65
61039;BME280;46919;45.816;3.104;2023-05-19T04:02:42;98091.59;;;10.89;69.08
61039;BME280;46919;45.816;3.104;2023-05-19T04:05:09;98089.75;;;10.83;69.58
61039;BME280;46919;45.816;3.104;2023-05-19T04:07:34;98099.16;;;10.80;69.40
61039;BME280;46919;45.816;3.104;2023-05-19T04:10:00;98099.19;;;10.74;70.01
61039;BME280;46919;45.816;3.104;2023-05-19T04:12:26;98093.47;;;10.63;70.43
61039;BME280;46919;45.816;3.104;2023-05-19T04:14:51;98088.34;;;10.55;71.10
61039;BME280;46919;45.816;3.104;2023-05-19T04:17:17;98093.19;;;10.46;71.51
61039;BME280;46919;45.816;3.104;2023-05-19T04:19:42;98090.75;;;10.38;72.14
61039;BME280;46919;45.816;3.104;2023-05-19T04:22:07;98086.59;;;10.36;72.22
61039;BME280;46919;45.816;3.104;2023-05-19T04:24:33;98088.88;;;10.32;72.85
61039;BME280;46919;45.816;3.104;2023-05-19T04:26:58;98092.66;;;10.31;73.39
61039;BME280;46919;45.816;3.104;2023-05-19T04:29:29;98100.13;;;10.29;73.66
61039;BME280;46919;45.816;3.104;2023-05-19T04:31:54;98092.44;;;10.26;74.20
61039;BME280;46919;45.816;3.104;2023-05-19T04:34:21;98099.09;;;10.30;74.71
61039;BME280;46919;45.816;3.104;2023-05-19T04:36:47;98097.63;;;10.27;75.02
61039;BME280;46919;45.816;3.104;2023-05-19T04:39:13;98097.63;;;10.27;74.91
61039;BME280;46919;45.816;3.104;2023-05-19T04:41:38;98099.13;;;10.23;75.23
61039;BME280;46919;45.816;3.104;2023-05-19T04:44:08;98101.19;;;10.21;75.41
61039;BME280;46919;45.816;3.104;2023-05-19T04:46:34;98100.78;;;10.24;74.98
61039;BME280;46919;45.816;3.104;2023-05-19T04:49:00;98094.34;;;10.25;76.00
61039;BME280;46919;45.816;3.104;2023-05-19T04:51:26;98102.44;;;10.25;76.12
61039;BME280;46919;45.816;3.104;2023-05-19T04:53:56;98105.75;;;10.27;76.24
61039;BME280;46919;45.816;3.104;2023-05-19T04:56:22;98105.34;;;10.24;76.43
61039;BME280;46919;45.816;3.104;2023-05-19T04:58:48;98115.34;;;10.23;76.58
61039;BME280;46919;45.816;3.104;2023-05-19T05:01:13;98110.72;;;10.30;76.86
61039;BME280;46919;45.816;3.104;2023-05-19T05:03:40;98116.78;;;10.32;76.40
61039;BME280;46919;45.816;3.104;2023-05-19T05:06:06;98112.53;;;10.43;76.56
61039;BME280;46919;45.816;3.104;2023-05-19T05:08:31;98117.72;;;10.45;76.42
61039;BME280;46919;45.816;3.104;2023-05-19T05:10:57;98118.78;;;10.44;76.79
61039;BME280;46919;45.816;3.104;2023-05-19T05:13:23;98115.22;;;10.50;77.56
61039;BME280;46919;45.816;3.104;2023-05-19T05:15:49;98115.91;;;10.64;77.79
61039;BME280;46919;45.816;3.104;2023-05-19T05:18:16;98120.13;;;10.60;77.79
61039;BME280;46919;45.816;3.104;2023-05-19T05:20:43;98126.13;;;10.62;78.27
61039;BME280;46919;45.816;3.104;2023-05-19T05:23:09;98118.31;;;10.79;78.88
61039;BME280;46919;45.816;3.104;2023-05-19T05:25:42;98120.56;;;10.82;78.61
61039;BME280;46919;45.816;3.104;2023-05-19T05:28:08;98121.41;;;10.82;78.19
61039;BME280;46919;45.816;3.104;2023-05-19T05:30:33;98123.66;;;10.85;77.73
61039;BME280;46919;45.816;3.104;2023-05-19T05:33:00;98123.16;;;10.95;77.43
61039;BME280;46919;45.816;3.104;2023-05-19T05:35:26;98123.50;;;11.05;76.74
61039;BME280;46919;45.816;3.104;2023-05-19T05:37:52;98119.06;;;11.11;76.45
61039;BME280;46919;45.816;3.104;2023-05-19T05:40:17;98112.38;;;11.14;75.81
61039;BME280;46919;45.816;3.104;2023-05-19T05:42:43;98097.63;;;11.10;75.58
61039;BME280;46919;45.816;3.104;2023-05-19T05:45:08;98106.81;;;11.09;75.25
61039;BME280;46919;45.816;3.104;2023-05-19T05:47:34;98105.59;;;11.04;75.38
61039;BME280;46919;45.816;3.104;2023-05-19T05:50:08;98103.03;;;11.10;75.34
61039;BME280;46919;45.816;3.104;2023-05-19T05:52:35;98100.78;;;11.06;74.87
61039;BME280;46919;45.816;3.104;2023-05-19T05:55:02;98099.75;;;11.08;75.52
61039;BME280;46919;45.816;3.104;2023-05-19T05:57:27;98105.91;;;11.15;75.43
61039;BME280;46919;45.816;3.104;2023-05-19T05:59:55;98107.13;;;11.19;75.08
61039;BME280;46919;45.816;3.104;2023-05-19T06:02:20;98108.63;;;11.33;75.38
61039;BME280;46919;45.816;3.104;2023-05-19T06:04:46;98112.63;;;11.49;75.69
61039;BME280;46919;45.816;3.104;2023-05-19T06:07:11;98106.09;;;11.57;75.28
61039;BME280;46919;45.816;3.104;2023-05-19T06:09:37;98116.63;;;11.65;75.09
61039;BME280;46919;45.816;3.104;2023-05-19T06:12:02;98111.56;;;11.69;75.32
61039;BME280;46919;45.816;3.104;2023-05-19T06:14:28;98107.91;;;11.63;74.08
61039;BME280;46919;45.816;3.104;2023-05-19T06:16:53;98113.19;;;11.58;73.55
61039;BME280;46919;45.816;3.104;2023-05-19T06:19:20;98114.59;;;11.60;73.51
61039;BME280;46919;45.816;3.104;2023-05-19T06:21:45;98111.06;;;11.60;73.34
61039;BME280;46919;45.816;3.104;2023-05-19T06:24:11;98109.16;;;11.60;73.03
61039;BME280;46919;45.816;3.104;2023-05-19T06:26:36;98104.38;;;11.63;72.85
61039;BME280;46919;45.816;3.104;2023-05-19T06:29:02;98112.63;;;11.68;73.40
61039;BME280;46919;45.816;3.104;2023-05-19T06:31:27;98114.50;;;11.67;73.30
61039;BME280;46919;45.816;3.104;2023-05-19T06:33:53;98106.91;;;11.76;72.99
61039;BME280;46919;45.816;3.104;2023-05-19T06:36:18;98105.56;;;11.85;73.92
61039;BME280;46919;45.816;3.104;2023-05-19T06:38:44;98099.22;;;11.91;73.53
61039;BME280;46919;45.816;3.104;2023-05-19T06:41:09;98101.75;;;11.93;73.24
61039;BME280;46919;45.816;3.104;2023-05-19T06:43:35;98102.00;;;12.03;73.96
61039;BME280;46919;45.816;3.104;2023-05-19T06:46:00;98095.41;;;11.99;72.92
61039;BME280;46919;45.816;3.104;2023-05-19T06:48:25;98104.03;;;12.08;72.94
61039;BME280;46919;45.816;3.104;2023-05-19T06:50:51;98099.72;;;12.19;71.68
61039;BME280;46919;45.816;3.104;2023-05-19T06:53:18;98096.44;;;12.28;71.33
61039;BME280;46919;45.816;3.104;2023-05-19T06:55:43;98098.94;;;12.30;71.29
61039;BME280;46919;45.816;3.104;2023-05-19T06:58:09;98096.97;;;12.37;71.04
61039;BME280;46919;45.816;3.104;2023-05-19T07:00:34;98089.66;;;12.49;70.47
61039;BME280;46919;45.816;3.104;2023-05-19T07:03:00;98096.06;;;12.67;69.69
61039;BME280;46919;45.816;3.104;2023-05-19T07:05:25;98097.72;;;12.68;69.91
61039;BME280;46919;45.816;3.104;2023-05-19T07:07:51;98097.72;;;12.68;69.53
61039;BME280;46919;45.816;3.104;2023-05-19T07:10:16;98096.91;;;12.67;69.75
61039;BME280;46919;45.816;3.104;2023-05-19T07:12:42;98102.69;;;12.71;69.58
61039;BME280;46919;45.816;3.104;2023-05-19T07:15:07;98102.22;;;12.74;69.41
61039;BME280;46919;45.816;3.104;2023-05-19T07:17:33;98105.41;;;12.83;69.51
61039;BME280;46919;45.816;3.104;2023-05-19T07:19:58;98100.13;;;12.88;69.20
61039;BME280;46919;45.816;3.104;2023-05-19T07:22:24;98101.06;;;12.94;69.49
61039;BME280;46919;45.816;3.104;2023-05-19T07:24:50;98103.31;;;12.97;69.47
61039;BME280;46919;45.816;3.104;2023-05-19T07:27:15;98097.53;;;13.05;68.72
61039;BME280;46919;45.816;3.104;2023-05-19T07:29:41;98095.06;;;13.15;68.13
61039;BME280;46919;45.816;3.104;2023-05-19T07:32:06;98096.94;;;13.27;68.26
61039;BME280;46919;45.816;3.104;2023-05-19T07:34:31;98103.69;;;13.36;67.72
61039;BME280;46919;45.816;3.104;2023-05-19T07:36:57;98101.66;;;13.31;67.74
61039;BME280;46919;45.816;3.104;2023-05-19T07:39:22;98085.38;;;13.31;67.05
61039;BME280;46919;45.816;3.104;2023-05-19T07:41:50;98093.41;;;13.38;67.29
61039;BME280;46919;45.816;3.104;2023-05-19T07:44:20;98102.63;;;13.49;66.27
61039;BME280;46919;45.816;3.104;2023-05-19T07:46:45;98098.22;;;13.59;65.03
61039;BME280;46919;45.816;3.104;2023-05-19T07:49:11;98097.38;;;13.71;65.29
61039;BME280;46919;45.816;3.104;2023-05-19T07:51:36;98098.66;;;13.80;64.73
61039;BME280;46919;45.816;3.104;2023-05-19T07:54:01;98099.00;;;13.84;65.46
61039;BME280;46919;45.816;3.104;2023-05-19T07:56:27;98099.06;;;14.01;65.50
61039;BME280;46919;45.816;3.104;2023-05-19T07:58:52;98095.31;;;14.19;65.62
61039;BME280;46919;45.816;3.104;2023-05-19T08:01:17;98092.69;;;14.24;65.09
61039;BME280;46919;45.816;3.104;2023-05-19T08:03:43;98096.34;;;14.29;64.66
61039;BME280;46919;45.816;3.104;2023-05-19T08:06:08;98094.75;;;14.34;64.33
61039;BME280;46919;45.816;3.104;2023-05-19T08:08:34;98092.81;;;14.29;63.86
61039;BME280;46919;45.816;3.104;2023-05-19T08:11:03;98092.88;;;14.34;63.70
61039;BME280;46919;45.816;3.104;2023-05-19T08:13:29;98096.34;;;14.29;63.49
61039;BME280;46919;45.816;3.104;2023-05-19T08:15:54;98095.75;;;14.27;63.71
61039;BME280;46919;45.816;3.104;2023-05-19T08:18:26;98088.75;;;14.31;63.46
61039;BME280;46919;45.816;3.104;2023-05-19T08:20:51;98092.66;;;14.36;63.00
61039;BME280;46919;45.816;3.104;2023-05-19T08:23:17;98084.97;;;14.49;62.87
61039;BME280;46919;45.816;3.104;2023-05-19T08:25:43;98078.63;;;14.73;62.14
61039;BME280;46919;45.816;3.104;2023-05-19T08:28:08;98079.53;;;14.78;61.32
61039;BME280;46919;45.816;3.104;2023-05-19T08:30:34;98082.31;;;14.83;61.59
61039;BME280;46919;45.816;3.104;2023-05-19T08:32:59;98074.31;;;14.94;61.48
61039;BME280;46919;45.816;3.104;2023-05-19T08:35:25;98077.53;;;15.08;60.96
61039;BME280;46919;45.816;3.104;2023-05-19T08:37:50;98067.28;;;15.15;60.53
61039;BME280;46919;45.816;3.104;2023-05-19T08:40:16;98074.47;;;15.21;60.08
61039;BME280;46919;45.816;3.104;2023-05-19T08:42:43;98069.66;;;15.28;60.56
61039;BME280;46919;45.816;3.104;2023-05-19T08:45:09;98060.06;;;15.26;60.56
61039;BME280;46919;45.816;3.104;2023-05-19T08:47:35;98064.38;;;15.38;60.16
61039;BME280;46919;45.816;3.104;2023-05-19T08:50:05;98063.31;;;15.45;60.29
61039;BME280;46919;45.816;3.104;2023-05-19T08:52:34;98056.81;;;15.68;59.40
61039;BME280;46919;45.816;3.104;2023-05-19T08:55:12;98051.28;;;15.80;57.65
61039;BME280;46919;45.816;3.104;2023-05-19T08:57:39;98056.13;;;15.55;57.72
61039;BME280;46919;45.816;3.104;2023-05-19T09:00:06;98054.81;;;15.58;57.71
61039;BME280;46919;45.816;3.104;2023-05-19T09:02:35;98050.50;;;15.84;57.80
61039;BME280;46919;45.816;3.104;2023-05-19T09:05:02;98051.06;;;16.08;57.50
61039;BME280;46919;45.816;3.104;2023-05-19T09:07:30;98044.84;;;16.13;55.86
61039;BME280;46919;45.816;3.104;2023-05-19T09:09:59;98049.16;;;15.87;56.50
61039;BME280;46919;45.816;3.104;2023-05-19T09:12:25;98038.56;;;15.90;56.70
61039;BME280;46919;45.816;3.104;2023-05-19T09:14:51;98041.25;;;15.85;56.51
61039;BME280;46919;45.816;3.104;2023-05-19T09:17:17;98033.28;;;15.79;55.94
61039;BME280;46919;45.816;3.104;2023-05-19T09:19:46;98040.22;;;15.69;55.46
61039;BME280;46919;45.816;3.104;2023-05-19T09:22:15;98036.63;;;15.86;55.80
61039;BME280;46919;45.816;3.104;2023-05-19T09:24:43;98036.78;;;16.01;55.32
61039;BME280;46919;45.816;3.104;2023-05-19T09:27:08;98032.94;;;15.97;54.77
61039;BME280;46919;45.816;3.104;2023-05-19T09:29:34;98036.22;;;15.99;55.15
61039;BME280;46919;45.816;3.104;2023-05-19T09:31:59;98026.44;;;16.03;54.72
61039;BME280;46919;45.816;3.104;2023-05-19T09:34:28;98030.31;;;16.07;54.63
61039;BME280;46919;45.816;3.104;2023-05-19T09:36:53;98027.63;;;16.12;54.25
61039;BME280;46919;45.816;3.104;2023-05-19T09:39:21;98021.78;;;16.26;53.87
61039;BME280;46919;45.816;3.104;2023-05-19T09:41:49;98015.03;;;16.34;53.36
61039;BME280;46919;45.816;3.104;2023-05-19T09:46:51;98011.63;;;16.54;52.13
61039;BME280;46919;45.816;3.104;2023-05-19T09:49:17;98012.81;;;16.63;52.38
61039;BME280;46919;45.816;3.104;2023-05-19T09:51:43;98000.91;;;16.79;52.01
61039;BME280;46919;45.816;3.104;2023-05-19T09:54:13;98005.78;;;16.72;51.69
61039;BME280;46919;45.816;3.104;2023-05-19T09:56:40;98005.34;;;16.86;52.42
61039;BME280;46919;45.816;3.104;2023-05-19T09:59:05;97994.78;;;16.94;51.64
61039;BME280;46919;45.816;3.104;2023-05-19T10:01:31;97993.59;;;16.85;51.06
61039;BME280;46919;45.816;3.104;2023-05-19T10:04:02;97991.78;;;16.96;51.12
61039;BME280;46919;45.816;3.104;2023-05-19T10:06:28;97991.00;;;17.00;51.43
61039;BME280;46919;45.816;3.104;2023-05-19T10:08:54;97994.22;;;16.92;51.67
61039;BME280;46919;45.816;3.104;2023-05-19T10:11:22;97984.00;;;17.25;51.51
61039;BME280;46919;45.816;3.104;2023-05-19T10:13:49;97993.59;;;17.28;50.87
61039;BME280;46919;45.816;3.104;2023-05-19T10:16:16;97982.69;;;17.33;50.94
61039;BME280;46919;45.816;3.104;2023-05-19T10:18:42;97985.66;;;17.31;49.66
61039;BME280;46919;45.816;3.104;2023-05-19T10:21:08;97983.31;;;17.55;49.74
61039;BME280;46919;45.816;3.104;2023-05-19T10:23:33;97987.69;;;17.62;48.49
61039;BME280;46919;45.816;3.104;2023-05-19T10:26:00;97988.28;;;17.74;49.85
61039;BME280;46919;45.816;3.104;2023-05-19T10:28:40;97993.47;;;17.70;47.39
61039;BME280;46919;45.816;3.104;2023-05-19T10:31:11;97996.47;;;17.64;48.11
61039;BME280;46919;45.816;3.104;2023-05-19T10:39:33;97981.81;;;18.06;47.36
61039;BME280;46919;45.816;3.104;2023-05-19T10:45:12;97977.16;;;18.06;46.84
61039;BME280;46919;45.816;3.104;2023-05-19T10:47:42;97981.81;;;18.11;46.63
61039;BME280;46919;45.816;3.104;2023-05-19T10:50:09;97982.91;;;18.00;47.10
61039;BME280;46919;45.816;3.104;2023-05-19T10:52:38;97974.47;;;18.32;47.33
61039;BME280;46919;45.816;3.104;2023-05-19T10:55:08;97974.47;;;18.58;46.64
61039;BME280;46919;45.816;3.104;2023-05-19T10:57:34;97972.25;;;18.44;46.99
61039;BME280;46919;45.816;3.104;2023-05-19T11:00:25;97966.50;;;18.82;46.54
61039;BME280;46919;45.816;3.104;2023-05-19T11:02:49;97961.41;;;19.41;45.92
61039;BME280;46919;45.816;3.104;2023-05-19T11:05:27;97962.72;;;19.53;43.51
61039;BME280;46919;45.816;3.104;2023-05-19T11:07:56;97960.97;;;19.08;43.36
61039;BME280;46919;45.816;3.104;2023-05-19T11:10:28;97974.72;;;18.72;44.63
61039;BME280;46919;45.816;3.104;2023-05-19T11:12:55;97967.31;;;18.93;44.38
61039;BME280;46919;45.816;3.104;2023-05-19T11:15:24;97965.50;;;19.48;42.35
61039;BME280;46919;45.816;3.104;2023-05-19T11:17:51;97974.44;;;19.69;42.56
61039;BME280;46919;45.816;3.104;2023-05-19T11:20:24;97970.25;;;19.27;43.46
61039;BME280;46919;45.816;3.104;2023-05-19T11:23:16;97972.00;;;18.72;41.98
61039;BME280;46919;45.816;3.104;2023-05-19T11:25:47;97972.00;;;18.61;43.63
61039;BME280;46919;45.816;3.104;2023-05-19T11:28:17;97967.34;;;18.57;43.38
61039;BME280;46919;45.816;3.104;2023-05-19T11:30:50;97968.19;;;18.42;44.84
61039;BME280;46919;45.816;3.104;2023-05-19T11:33:18;97977.72;;;18.14;45.02
61039;BME280;46919;45.816;3.104;2023-05-19T11:35:49;97982.81;;;17.79;45.54
61039;BME280;46919;45.816;3.104;2023-05-19T11:38:18;97976.94;;;17.34;45.77
61039;BME280;46919;45.816;3.104;2023-05-19T11:40:44;97976.59;;;17.20;46.41
61039;BME280;46919;45.816;3.104;2023-05-19T11:43:09;97976.13;;;17.29;46.42
61039;BME280;46919;45.816;3.104;2023-05-19T11:45:35;97977.47;;;17.26;46.30
61039;BME280;46919;45.816;3.104;2023-05-19T11:48:01;97978.00;;;17.28;46.67
61039;BME280;46919;45.816;3.104;2023-05-19T11:50:32;97976.44;;;17.43;46.24
61039;BME280;46919;45.816;3.104;2023-05-19T11:53:00;97980.09;;;17.69;46.57
61039;BME280;46919;45.816;3.104;2023-05-19T11:55:25;97977.41;;;17.84;46.10
61039;BME280;46919;45.816;3.104;2023-05-19T11:58:01;97980.16;;;17.89;45.29
61039;BME280;46919;45.816;3.104;2023-05-19T12:00:29;97976.31;;;17.90;46.19
61039;BME280;46919;45.816;3.104;2023-05-19T12:02:56;97978.25;;;17.95;46.66
61039;BME280;46919;45.816;3.104;2023-05-19T12:05:25;97972.81;;;18.05;46.69
61039;BME280;46919;45.816;3.104;2023-05-19T12:07:52;97972.53;;;18.02;47.24
61039;BME280;46919;45.816;3.104;2023-05-19T12:10:28;97967.00;;;17.81;46.88
61039;BME280;46919;45.816;3.104;2023-05-19T12:12:55;97960.84;;;17.38;47.99
61039;BME280;46919;45.816;3.104;2023-05-19T12:15:22;97961.78;;;17.06;47.88
61039;BME280;46919;45.816;3.104;2023-05-19T12:17:58;97975.31;;;16.86;48.27
61039;BME280;46919;45.816;3.104;2023-05-19T12:20:24;97976.53;;;16.67;48.65
61039;BME280;46919;45.816;3.104;2023-05-19T12:22:50;97980.13;;;16.36;49.22
61039;BME280;46919;45.816;3.104;2023-05-19T12:25:17;97985.41;;;16.15;49.30
61039;BME280;46919;45.816;3.104;2023-05-19T12:27:43;97988.78;;;16.00;49.57
61039;BME280;46919;45.816;3.104;2023-05-19T12:30:09;97985.94;;;15.85;49.68
61039;BME280;46919;45.816;3.104;2023-05-19T12:32:35;97984.97;;;15.74;49.67
61039;BME280;46919;45.816;3.104;2023-05-19T12:35:03;97985.78;;;15.74;50.39
61039;BME280;46919;45.816;3.104;2023-05-19T12:37:29;97987.44;;;15.75;50.85
61039;BME280;46919;45.816;3.104;2023-05-19T12:39:55;97994.06;;;15.80;50.65
61039;BME280;46919;45.816;3.104;2023-05-19T12:42:22;97987.44;;;15.75;50.79
61039;BME280;46919;45.816;3.104;2023-05-19T12:44:49;97997.84;;;15.79;50.67
61039;BME280;46919;45.816;3.104;2023-05-19T12:47:17;97991.38;;;15.85;51.07
61039;BME280;46919;45.816;3.104;2023-05-19T12:50:13;97996.84;;;15.85;50.55
61039;BME280;46919;45.816;3.104;2023-05-19T12:52:46;97997.44;;;15.92;50.07
61039;BME280;46919;45.816;3.104;2023-05-19T12:55:12;97989.94;;;16.04;50.41
61039;BME280;46919;45.816;3.104;2023-05-19T12:57:40;97995.53;;;16.20;49.99
61039;BME280;46919;45.816;3.104;2023-05-19T13:00:21;97983.00;;;16.24;50.14
61039;BME280;46919;45.816;3.104;2023-05-19T13:02:59;97984.16;;;16.28;49.83
61039;BME280;46919;45.816;3.104;2023-05-19T13:05:26;97987.44;;;16.30;49.29
61039;BME280;46919;45.816;3.104;2023-05-19T13:07:56;97980.94;;;16.36;50.07
61039;BME280;46919;45.816;3.104;2023-05-19T13:10:23;97987.50;;;16.35;49.70
61039;BME280;46919;45.816;3.104;2023-05-19T13:12:50;97985.84;;;16.34;49.04
61039;BME280;46919;45.816;3.104;2023-05-19T13:15:16;97990.78;;;16.37;48.86
61039;BME280;46919;45.816;3.104;2023-05-19T13:17:41;97984.28;;;16.43;48.93
61039;BME280;46919;45.816;3.104;2023-05-19T13:20:07;97986.50;;;16.46;48.15
61039;BME280;46919;45.816;3.104;2023-05-19T13:22:33;97983.75;;;16.46;47.88
61039;BME280;46919;45.816;3.104;2023-05-19T13:24:58;97980.03;;;16.58;48.30